Time;durP1;ratioP1;P1;durP2;ratioP2;P2;SDS_P1;SDS_P2;PMS_P1;PMS_P2;Temp;Humidity;BMP_temperature;BMP_pressure;BME280_temperature;BME280_humidity;BME280_pressure;Samples;Min_cycle;Max_cycle;Signal;HPM_P1;HPM_P2
2022/02/28 00:00:53;;;;;;;7.95;4.53;;;8.80;76.20;;;;;;5049916;28;20098;-61
2022/02/28 00:17:50;;;;;;;10.77;4.43;;;8.80;76.50;;;;;;5033119;28;20434;-61
2022/02/28 00:37:42;;;;;;;11.10;4.40;;;8.80;76.60;;;;;;5000623;28;20477;-60
2022/02/28 00:40:11;;;;;;;10.48;4.85;;;8.80;76.50;;;;;;5005542;28;20736;-61
2022/02/28 00:42:37;;;;;;;11.68;4.93;;;8.80;76.50;;;;;;4989099;28;20032;-60
2022/02/28 00:45:03;;;;;;;8.85;4.45;;;8.80;76.50;;;;;;5006715;28;20178;-61
2022/02/28 00:47:29;;;;;;;13.15;4.47;;;8.80;76.40;;;;;;5005678;28;20058;-60
2022/02/28 00:49:55;;;;;;;6.63;3.58;;;8.80;76.60;;;;;;5006671;28;20398;-60
2022/02/28 00:52:21;;;;;;;11.57;4.75;;;8.80;76.50;;;;;;5005625;28;20042;-60
2022/02/28 00:54:47;;;;;;;11.55;4.38;;;8.80;76.50;;;;;;5001835;28;20427;-60
2022/02/28 01:38:29;;;;;;;8.75;4.30;;;8.80;77.00;;;;;;5053435;28;20367;-61
2022/02/28 01:40:55;;;;;;;12.20;5.00;;;8.80;77.10;;;;;;5048197;28;20044;-61
2022/02/28 02:28:12;;;;;;;9.70;4.88;;;8.70;77.70;;;;;;4995088;28;20530;-60
2022/02/28 02:30:41;;;;;;;11.68;5.10;;;8.70;77.60;;;;;;4987779;28;20056;-60
2022/02/28 03:00:17;;;;;;;12.63;4.80;;;8.70;78.10;;;;;;4985573;28;20041;-60
2022/02/28 05:33:22;;;;;;;7.88;4.57;;;8.80;78.70;;;;;;5047146;28;20024;-60
2022/02/28 05:35:48;;;;;;;9.90;4.40;;;8.80;78.70;;;;;;5059022;28;20497;-61
2022/02/28 05:38:14;;;;;;;9.35;4.50;;;8.80;78.40;;;;;;5065346;28;20116;-60
2022/02/28 05:40:40;;;;;;;16.83;4.93;;;8.70;78.60;;;;;;5061208;28;20493;-62
2022/02/28 05:43:06;;;;;;;9.30;4.75;;;8.80;78.20;;;;;;5058453;28;20048;-60
2022/02/28 05:45:36;;;;;;;5.55;3.05;;;8.80;78.10;;;;;;5055094;28;20505;-60
2022/02/28 05:48:06;;;;;;;8.50;4.70;;;8.90;77.80;;;;;;5056940;28;20123;-60
2022/02/28 05:50:31;;;;;;;8.27;4.45;;;8.90;78.00;;;;;;5054475;28;20119;-60
2022/02/28 05:52:57;;;;;;;9.27;4.20;;;8.90;77.80;;;;;;5051863;28;20120;-61
2022/02/28 05:55:23;;;;;;;10.68;4.32;;;8.90;77.80;;;;;;5056578;28;20111;-60
2022/02/28 05:57:48;;;;;;;8.27;4.07;;;8.90;77.60;;;;;;5058259;28;20120;-60
2022/02/28 06:00:15;;;;;;;8.70;4.45;;;8.90;77.60;;;;;;5056910;28;20025;-60
2022/02/28 06:02:41;;;;;;;10.52;4.30;;;8.90;77.60;;;;;;5047341;28;20033;-60
2022/02/28 06:05:07;;;;;;;8.95;4.43;;;8.90;77.70;;;;;;5050600;28;20049;-60
2022/02/28 06:07:33;;;;;;;10.68;4.22;;;8.90;77.60;;;;;;5053575;28;20029;-60
2022/02/28 06:09:59;;;;;;;9.18;4.50;;;8.80;78.00;;;;;;5050959;28;20021;-60
2022/02/28 06:12:24;;;;;;;17.30;5.07;;;8.80;77.80;;;;;;5052579;28;20050;-60
2022/02/28 06:14:50;;;;;;;11.75;4.43;;;8.80;77.80;;;;;;5051976;28;20558;-60
2022/02/28 06:17:15;;;;;;;8.70;4.60;;;8.80;77.90;;;;;;5052528;28;20047;-59
2022/02/28 06:19:41;;;;;;;13.13;5.07;;;8.90;77.60;;;;;;5051838;28;20377;-61
2022/02/28 06:22:07;;;;;;;9.25;3.67;;;8.90;77.50;;;;;;5049575;28;20474;-60
2022/02/28 06:24:33;;;;;;;25.70;5.20;;;8.90;77.40;;;;;;5038972;28;20033;-60
2022/02/28 06:30:24;;;;;;;14.32;4.82;;;8.80;77.60;;;;;;5057205;28;20080;-60
2022/02/28 06:32:50;;;;;;;11.63;4.75;;;8.90;78.20;;;;;;5052891;28;20583;-60
2022/02/28 06:35:16;;;;;;;11.10;4.32;;;8.90;77.30;;;;;;5050693;28;20080;-63
2022/02/28 06:37:42;;;;;;;9.50;4.07;;;8.90;77.30;;;;;;5062395;28;20098;-63
2022/02/28 06:40:08;;;;;;;12.32;5.05;;;8.70;77.50;;;;;;5066221;28;20028;-63
2022/02/28 06:42:35;;;;;;;7.68;4.10;;;8.60;77.60;;;;;;5056568;28;20120;-63
2022/02/28 06:45:11;;;;;;;10.73;4.80;;;8.50;77.60;;;;;;5057407;28;20491;-63
2022/02/28 06:47:37;;;;;;;11.38;4.65;;;8.50;77.20;;;;;;5054866;28;20576;-63
2022/02/28 06:50:04;;;;;;;10.27;4.40;;;8.40;77.10;;;;;;5049186;28;20032;-63
2022/02/28 06:52:30;;;;;;;10.60;4.72;;;8.40;76.50;;;;;;5056332;28;20032;-63
2022/02/28 06:54:56;;;;;;;11.93;4.63;;;8.40;76.10;;;;;;5057885;28;20036;-63
2022/02/28 06:57:22;;;;;;;8.52;4.55;;;8.40;75.70;;;;;;5061396;28;20029;-63
2022/02/28 06:59:48;;;;;;;17.48;5.63;;;8.40;75.70;;;;;;5061729;28;20480;-63
2022/02/28 07:02:14;;;;;;;19.45;5.70;;;8.40;75.20;;;;;;5063330;28;20577;-63
2022/02/28 07:04:39;;;;;;;10.20;4.07;;;8.40;74.80;;;;;;5061213;28;20036;-63
2022/02/28 07:07:05;;;;;;;9.02;4.15;;;8.50;74.80;;;;;;5058798;28;20108;-64
2022/02/28 07:09:31;;;;;;;10.02;5.60;;;8.40;74.60;;;;;;5062954;28;20431;-63
2022/02/28 07:11:57;;;;;;;12.85;6.03;;;8.40;74.70;;;;;;5053762;28;20052;-64
2022/02/28 07:14:23;;;;;;;12.25;5.43;;;8.50;74.10;;;;;;5058137;28;20058;-63
2022/02/28 07:16:49;;;;;;;10.93;4.57;;;8.50;74.00;;;;;;5058211;28;20459;-63
2022/02/28 07:19:14;;;;;;;14.35;5.25;;;8.60;74.10;;;;;;5059190;28;20036;-63
2022/02/28 07:21:40;;;;;;;13.20;5.03;;;8.50;73.70;;;;;;5058712;28;20079;-63
2022/02/28 07:24:06;;;;;;;10.80;5.30;;;8.60;73.80;;;;;;5061440;28;20033;-63
2022/02/28 07:26:34;;;;;;;16.65;5.30;;;8.60;73.50;;;;;;5058193;28;20143;-63
2022/02/28 07:29:00;;;;;;;9.88;5.07;;;8.60;73.30;;;;;;5061318;28;20123;-64
2022/02/28 07:31:25;;;;;;;11.50;4.95;;;8.60;73.50;;;;;;5057889;28;20104;-63
2022/02/28 07:33:51;;;;;;;10.52;4.88;;;8.60;73.30;;;;;;5063754;28;20461;-62
2022/02/28 07:36:16;;;;;;;12.25;5.30;;;8.60;72.70;;;;;;5054714;28;20029;-62
2022/02/28 07:38:42;;;;;;;10.90;5.57;;;8.70;72.70;;;;;;5059694;28;20450;-64
2022/02/28 07:41:08;;;;;;;12.75;5.40;;;8.70;72.70;;;;;;5059375;28;20041;-64
2022/02/28 07:43:34;;;;;;;9.88;5.03;;;8.80;71.90;;;;;;5064935;28;20103;-63
2022/02/28 07:46:00;;;;;;;11.20;5.22;;;8.90;71.50;;;;;;5054986;28;20033;-63
2022/02/28 07:48:26;;;;;;;14.05;5.68;;;8.90;71.70;;;;;;5055637;28;20444;-64
2022/02/28 07:50:57;;;;;;;15.43;5.85;;;8.90;71.90;;;;;;5073517;28;20025;-63
2022/02/28 07:53:23;;;;;;;13.32;5.50;;;8.90;72.20;;;;;;5056547;28;20059;-62
2022/02/28 07:55:49;;;;;;;12.20;5.60;;;9.00;72.70;;;;;;5052947;28;20090;-62
2022/02/28 07:58:15;;;;;;;16.05;7.93;;;9.00;72.50;;;;;;5063948;28;20103;-63
2022/02/28 08:00:41;;;;;;;10.73;4.65;;;9.00;72.00;;;;;;5043031;28;20095;-65
2022/02/28 08:03:07;;;;;;;14.85;6.15;;;9.00;72.00;;;;;;5059212;28;20130;-62
2022/02/28 08:05:32;;;;;;;16.40;6.22;;;9.00;71.60;;;;;;5057281;28;20161;-63
2022/02/28 08:07:58;;;;;;;17.42;6.82;;;9.00;71.10;;;;;;5056630;28;20029;-64
2022/02/28 08:10:23;;;;;;;12.35;6.28;;;9.00;71.90;;;;;;5053974;28;20031;-63
2022/02/28 08:16:11;;;;;;;15.10;6.97;;;9.10;72.30;;;;;;5056335;28;20051;-63
2022/02/28 08:18:37;;;;;;;18.10;7.30;;;9.00;72.20;;;;;;5055482;28;20032;-64
2022/02/28 08:21:03;;;;;;;15.45;6.78;;;9.10;72.30;;;;;;5057837;28;20029;-62
2022/02/28 08:23:29;;;;;;;18.50;8.02;;;9.10;71.40;;;;;;5055679;28;20508;-62
2022/02/28 08:25:55;;;;;;;18.25;8.73;;;9.10;72.00;;;;;;5061291;28;20021;-63
2022/02/28 08:28:20;;;;;;;19.90;8.70;;;9.10;71.50;;;;;;5057027;28;20546;-63
2022/02/28 08:30:47;;;;;;;15.85;7.45;;;9.10;71.30;;;;;;5059437;28;20088;-63
2022/02/28 08:33:13;;;;;;;14.75;7.30;;;9.00;71.80;;;;;;5059151;28;20033;-64
2022/02/28 08:35:39;;;;;;;14.90;7.70;;;9.10;73.00;;;;;;5060643;28;20029;-63
2022/02/28 08:38:05;;;;;;;16.35;7.57;;;9.10;73.30;;;;;;5061293;28;20051;-63
2022/02/28 08:40:31;;;;;;;15.20;7.68;;;9.10;73.40;;;;;;5057365;28;20119;-63
2022/02/28 08:42:56;;;;;;;18.90;6.97;;;9.10;72.60;;;;;;5057978;28;20593;-63
2022/02/28 08:45:22;;;;;;;17.95;8.38;;;9.10;72.60;;;;;;5059941;28;20508;-66
2022/02/28 08:47:48;;;;;;;20.08;9.88;;;9.10;71.80;;;;;;5057844;28;20021;-63
2022/02/28 08:50:16;;;;;;;24.73;8.75;;;9.10;73.50;;;;;;5058951;28;20475;-63
2022/02/28 08:52:43;;;;;;;18.38;8.10;;;9.20;73.60;;;;;;5057625;28;20024;-63
2022/02/28 08:55:08;;;;;;;17.30;5.80;;;9.10;73.30;;;;;;5059922;28;20016;-63
2022/02/28 08:57:35;;;;;;;19.55;8.02;;;9.10;71.60;;;;;;5058479;28;20017;-62
2022/02/28 09:00:03;;;;;;;21.55;8.35;;;9.10;70.50;;;;;;5059472;28;20036;-62
2022/02/28 09:02:28;;;;;;;16.52;8.95;;;9.20;71.90;;;;;;5056202;28;20521;-64
2022/02/28 09:04:54;;;;;;;18.05;8.73;;;9.20;69.50;;;;;;5059593;28;20021;-63
2022/02/28 09:07:20;;;;;;;24.10;10.27;;;9.20;71.00;;;;;;5055430;28;20040;-64
2022/02/28 09:09:45;;;;;;;23.17;9.05;;;9.20;71.70;;;;;;5058771;28;20103;-63
2022/02/28 09:12:11;;;;;;;16.20;8.30;;;9.10;70.80;;;;;;5060039;28;20029;-63
2022/02/28 09:14:38;;;;;;;20.98;8.77;;;9.10;71.60;;;;;;5065223;28;20079;-64
2022/02/28 09:17:04;;;;;;;18.67;8.02;;;9.20;71.20;;;;;;5060376;28;20025;-63
2022/02/28 09:19:30;;;;;;;20.83;8.88;;;9.20;71.60;;;;;;5058482;28;20448;-63
2022/02/28 09:21:57;;;;;;;17.67;8.30;;;9.20;70.70;;;;;;5056175;28;20032;-63
2022/02/28 09:24:22;;;;;;;18.58;8.20;;;9.20;71.10;;;;;;5058423;28;20024;-63
2022/02/28 09:26:48;;;;;;;16.83;8.15;;;9.30;70.40;;;;;;5059025;28;20466;-64
2022/02/28 09:29:14;;;;;;;19.38;8.77;;;9.30;73.00;;;;;;5058451;28;20028;-63
2022/02/28 09:31:39;;;;;;;17.95;8.85;;;9.20;72.40;;;;;;5058206;28;20134;-64
2022/02/28 09:34:05;;;;;;;17.40;8.35;;;9.30;70.50;;;;;;5051042;28;20542;-63
2022/02/28 09:36:30;;;;;;;16.73;8.75;;;9.30;71.70;;;;;;5057192;28;20043;-63
2022/02/28 09:38:58;;;;;;;19.90;8.48;;;9.30;71.50;;;;;;5060469;28;20029;-63
2022/02/28 09:41:24;;;;;;;19.58;8.15;;;9.30;72.90;;;;;;5057052;28;20055;-63
2022/02/28 09:43:50;;;;;;;14.23;5.88;;;9.30;73.10;;;;;;5057099;28;20025;-64
2022/02/28 09:46:17;;;;;;;12.02;6.35;;;9.30;72.40;;;;;;5059277;28;20028;-64
2022/02/28 09:48:45;;;;;;;22.45;8.68;;;9.30;73.10;;;;;;5065409;28;20098;-64
2022/02/28 09:51:11;;;;;;;27.45;7.80;;;9.30;72.00;;;;;;5065439;28;20119;-63
2022/02/28 09:53:37;;;;;;;16.77;6.45;;;9.40;71.10;;;;;;5060279;28;20025;-63
2022/02/28 09:56:03;;;;;;;14.20;7.55;;;9.40;70.20;;;;;;5058793;28;20150;-63
2022/02/28 09:58:30;;;;;;;12.95;6.22;;;9.40;70.90;;;;;;5066118;28;20021;-63
2022/02/28 10:00:57;;;;;;;7.03;2.13;;;9.40;71.50;;;;;;5054071;28;20025;-64
2022/02/28 10:03:27;;;;;;;12.13;6.57;;;9.40;71.20;;;;;;5064258;28;20029;-63
2022/02/28 10:06:01;;;;;;;15.05;7.82;;;9.40;70.20;;;;;;5064191;28;20122;-63
2022/02/28 10:08:39;;;;;;;17.70;8.13;;;9.50;70.10;;;;;;5057551;28;20029;-63
2022/02/28 10:11:24;;;;;;;2.20;1.50;;;9.50;70.20;;;;;;5066792;28;20024;-64
2022/02/28 10:13:52;;;;;;;15.57;5.85;;;9.50;70.00;;;;;;5061066;28;20452;-63
2022/02/28 10:16:41;;;;;;;15.20;6.35;;;9.50;68.60;;;;;;5061930;28;20091;-63
2022/02/28 10:19:11;;;;;;;12.48;6.93;;;9.60;69.20;;;;;;5064979;28;20055;-63
2022/02/28 10:21:41;;;;;;;4.80;1.65;;;9.60;70.80;;;;;;5061936;28;20040;-63
2022/02/28 10:24:12;;;;;;;12.40;5.30;;;9.60;67.80;;;;;;5060936;28;20051;-63
2022/02/28 10:26:43;;;;;;;16.42;7.80;;;9.70;69.00;;;;;;5076201;28;20024;-63
2022/02/28 10:29:11;;;;;;;14.10;6.13;;;9.70;68.00;;;;;;5061543;28;20023;-63
2022/02/28 10:31:40;;;;;;;16.40;8.93;;;9.70;68.10;;;;;;5057601;28;20096;-63
2022/02/28 10:34:20;;;;;;;13.20;4.55;;;9.80;69.00;;;;;;5062125;28;20029;-64
2022/02/28 10:37:03;;;;;;;15.47;7.03;;;9.80;67.70;;;;;;5060635;28;20028;-64
2022/02/28 10:39:33;;;;;;;19.98;7.82;;;9.80;68.60;;;;;;5058823;28;20100;-63
2022/02/28 10:42:12;;;;;;;20.23;7.18;;;9.80;68.80;;;;;;5054795;28;20466;-63
2022/02/28 10:44:39;;;;;;;12.73;5.90;;;9.90;70.40;;;;;;5061043;28;20028;-65
2022/02/28 10:47:07;;;;;;;13.98;6.85;;;9.90;69.60;;;;;;5076601;23;20041;-66
2022/02/28 10:49:35;;;;;;;12.35;5.95;;;10.00;69.80;;;;;;5051254;28;20075;-66
2022/02/28 10:52:10;;;;;;;18.40;7.35;;;10.00;70.40;;;;;;5051977;28;20528;-67
2022/02/28 10:54:40;;;;;;;13.52;6.68;;;10.00;70.80;;;;;;5056927;28;20024;-66
2022/02/28 10:57:09;;;;;;;19.02;8.25;;;10.10;70.20;;;;;;5071765;28;20614;-66
2022/02/28 10:59:49;;;;;;;13.65;6.50;;;10.20;69.50;;;;;;5068997;28;20028;-66
2022/02/28 11:02:36;;;;;;;12.47;6.43;;;10.20;71.20;;;;;;5066932;28;20131;-66
2022/02/28 11:05:17;;;;;;;15.45;6.65;;;10.20;70.00;;;;;;5074228;28;20025;-66
2022/02/28 11:07:48;;;;;;;16.35;6.68;;;10.30;67.80;;;;;;5071441;28;20039;-66
2022/02/28 11:10:16;;;;;;;13.15;5.50;;;10.30;68.00;;;;;;5071415;28;20016;-67
2022/02/28 11:12:42;;;;;;;12.48;6.65;;;10.40;67.70;;;;;;5069955;28;20542;-66
2022/02/28 11:15:18;;;;;;;8.88;5.07;;;10.40;66.90;;;;;;5071160;28;20024;-66
2022/02/28 11:17:46;;;;;;;7.57;4.13;;;10.40;64.30;;;;;;5052431;28;20037;-66
2022/02/28 11:20:17;;;;;;;28.42;6.90;;;10.50;66.40;;;;;;5051526;28;20037;-66
2022/02/28 11:22:47;;;;;;;11.05;5.22;;;10.50;67.30;;;;;;5050482;28;20032;-66
2022/02/28 11:25:16;;;;;;;11.23;4.85;;;10.60;67.10;;;;;;5049941;28;20060;-67
2022/02/28 11:27:44;;;;;;;16.08;7.47;;;10.70;66.10;;;;;;5051498;28;20025;-67
2022/02/28 11:30:16;;;;;;;19.73;5.53;;;10.70;67.20;;;;;;5051319;28;20060;-67
2022/02/28 11:32:43;;;;;;;9.43;4.38;;;10.80;67.10;;;;;;5064798;28;20138;-66
2022/02/28 11:35:36;;;;;;;11.50;5.38;;;10.70;64.90;;;;;;5071239;28;20073;-67
2022/02/28 11:38:15;;;;;;;6.82;2.92;;;10.80;66.00;;;;;;5070944;28;20497;-67
2022/02/28 11:40:49;;;;;;;7.57;4.32;;;10.80;64.00;;;;;;5071123;28;20470;-67
2022/02/28 11:43:26;;;;;;;14.38;5.53;;;10.80;62.70;;;;;;5071568;28;20032;-66
2022/02/28 11:46:00;;;;;;;17.67;6.97;;;10.80;64.30;;;;;;5072625;28;20058;-67
2022/02/28 11:48:38;;;;;;;17.88;6.65;;;10.90;67.40;;;;;;5071948;28;20044;-67
2022/02/28 11:51:25;;;;;;;11.80;7.05;;;10.90;67.30;;;;;;5071793;28;20032;-66
2022/02/28 11:53:55;;;;;;;15.82;6.90;;;10.90;67.10;;;;;;5070243;28;20068;-67
2022/02/28 11:56:24;;;;;;;13.70;6.53;;;11.00;66.90;;;;;;5070078;28;20103;-67
2022/02/28 11:58:55;;;;;;;10.05;3.20;;;11.00;65.60;;;;;;5068677;28;20273;-66
2022/02/28 12:01:41;;;;;;;12.45;6.53;;;11.00;65.50;;;;;;5049606;28;20040;-67
2022/02/28 12:04:06;;;;;;;17.88;6.78;;;11.00;66.90;;;;;;5050518;28;20484;-67
2022/02/28 12:06:51;;;;;;;17.92;7.32;;;11.10;66.90;;;;;;5050383;28;20036;-67
2022/02/28 12:09:37;;;;;;;15.05;7.07;;;11.10;66.90;;;;;;5050667;28;20025;-67
2022/02/28 12:12:27;;;;;;;14.02;6.95;;;11.10;64.90;;;;;;5050430;28;20028;-67
2022/02/28 12:14:56;;;;;;;12.02;5.72;;;11.10;66.60;;;;;;5050400;28;20051;-66
2022/02/28 12:20:15;;;;;;;21.90;6.70;;;11.10;66.80;;;;;;5050114;28;20033;-67
2022/02/28 12:22:53;;;;;;;13.57;5.97;;;11.10;66.90;;;;;;5049914;28;20025;-66
2022/02/28 12:25:52;;;;;;;14.00;6.30;;;11.10;66.00;;;;;;5049991;28;20024;-66
2022/02/28 12:28:28;;;;;;;12.52;6.57;;;11.10;67.50;;;;;;5049991;28;20021;-66
2022/02/28 12:30:57;;;;;;;13.35;6.75;;;11.10;66.50;;;;;;5050113;28;20225;-67
2022/02/28 12:33:30;;;;;;;13.02;5.97;;;11.10;65.40;;;;;;5048923;28;20021;-67
2022/02/28 12:36:09;;;;;;;12.88;5.53;;;11.10;64.30;;;;;;5048989;28;20021;-66
2022/02/28 12:38:40;;;;;;;16.02;7.32;;;11.20;65.30;;;;;;5049660;28;20273;-67
2022/02/28 12:41:11;;;;;;;19.08;8.63;;;11.20;67.20;;;;;;5050178;28;20037;-68
2022/02/28 12:43:39;;;;;;;18.88;5.82;;;11.20;67.00;;;;;;5049500;28;20040;-66
2022/02/28 12:46:08;;;;;;;16.40;8.23;;;11.30;66.70;;;;;;5049505;28;20482;-67
2022/02/28 12:48:34;;;;;;;13.68;6.78;;;11.30;65.80;;;;;;5047696;28;20041;-66
2022/02/28 12:51:03;;;;;;;11.43;3.67;;;11.40;66.10;;;;;;5049554;28;20103;-67
2022/02/28 12:53:31;;;;;;;13.90;5.93;;;11.50;64.00;;;;;;5048958;28;20057;-67
2022/02/28 12:56:02;;;;;;;16.67;6.68;;;11.50;65.00;;;;;;5049536;28;20025;-67
2022/02/28 12:58:33;;;;;;;16.52;7.03;;;11.60;61.60;;;;;;5049370;28;20029;-67
2022/02/28 13:01:14;;;;;;;16.45;7.10;;;11.70;63.00;;;;;;5049181;28;20029;-67
2022/02/28 13:03:45;;;;;;;13.20;4.75;;;11.80;63.30;;;;;;5051429;28;20389;-66
2022/02/28 13:06:12;;;;;;;10.07;5.22;;;11.80;61.50;;;;;;5045880;28;20321;-67
2022/02/28 13:08:40;;;;;;;18.10;6.60;;;11.60;58.60;;;;;;5049765;28;20013;-67
2022/02/28 13:11:18;;;;;;;9.52;3.88;;;11.80;63.90;;;;;;5049099;28;20029;-67
2022/02/28 13:14:06;;;;;;;12.63;4.43;;;11.90;59.90;;;;;;5048807;28;20036;-67
2022/02/28 13:16:36;;;;;;;12.90;6.28;;;11.80;61.80;;;;;;5047183;28;20063;-66
2022/02/28 13:19:10;;;;;;;16.25;6.90;;;11.80;63.30;;;;;;5049297;28;20173;-67
2022/02/28 13:21:42;;;;;;;16.00;6.80;;;11.90;63.50;;;;;;5046922;28;20401;-67
2022/02/28 13:24:15;;;;;;;17.80;6.47;;;11.80;62.70;;;;;;5049158;28;20436;-67
2022/02/28 13:26:43;;;;;;;16.65;6.88;;;11.70;64.20;;;;;;5049159;28;20029;-67
2022/02/28 13:29:11;;;;;;;16.35;7.35;;;11.60;63.60;;;;;;5049290;28;20036;-66
2022/02/28 13:31:39;;;;;;;12.98;7.20;;;11.50;64.10;;;;;;5048789;28;20094;-67
2022/02/28 13:34:08;;;;;;;15.50;5.70;;;11.40;66.30;;;;;;5049771;28;20025;-67
2022/02/28 13:36:36;;;;;;;11.40;5.82;;;11.30;65.10;;;;;;5049407;28;20037;-66
2022/02/28 13:39:03;;;;;;;12.57;6.60;;;11.30;63.90;;;;;;5048979;28;20073;-66
2022/02/28 13:41:30;;;;;;;11.77;6.38;;;11.30;63.30;;;;;;5048752;28;20029;-66
2022/02/28 13:43:58;;;;;;;15.25;6.18;;;11.30;64.10;;;;;;5049344;28;20048;-67
2022/02/28 13:46:23;;;;;;;18.90;7.15;;;11.30;65.30;;;;;;5048985;28;20029;-67
2022/02/28 13:48:57;;;;;;;26.83;10.43;;;11.40;64.80;;;;;;5051067;28;20033;-67
2022/02/28 13:51:23;;;;;;;13.88;6.03;;;11.40;66.80;;;;;;5048929;28;20120;-67
2022/02/28 13:53:48;;;;;;;19.83;6.45;;;11.40;66.00;;;;;;5048722;28;20120;-67
2022/02/28 13:56:28;;;;;;;12.45;6.03;;;11.30;65.30;;;;;;5049409;28;20035;-67
2022/02/28 13:59:08;;;;;;;14.90;6.50;;;11.30;65.90;;;;;;5049508;28;20017;-67
2022/02/28 14:01:35;;;;;;;12.80;5.78;;;11.30;65.50;;;;;;5049151;28;20152;-67
2022/02/28 14:04:05;;;;;;;16.58;7.57;;;11.20;65.20;;;;;;5049164;28;20044;-68
2022/02/28 14:06:31;;;;;;;;;;;11.20;66.20;;;;;;5050541;28;20493;-68
2022/02/28 14:08:57;;;;;;;13.57;5.90;;;11.10;65.40;;;;;;5051011;28;19991;-68
2022/02/28 14:11:31;;;;;;;18.20;6.82;;;11.10;65.70;;;;;;5049720;28;20013;-67
2022/02/28 14:14:11;;;;;;;14.43;6.70;;;11.10;64.10;;;;;;5051987;28;20025;-68
2022/02/28 14:16:37;;;;;;;;;;;11.00;65.30;;;;;;5049431;28;20471;-67
2022/02/28 14:19:15;;;;;;;14.98;6.28;;;11.00;65.20;;;;;;5048252;28;19913;-67
2022/02/28 14:21:47;;;;;;;15.00;6.25;;;11.00;65.30;;;;;;5047733;28;20033;-67
2022/02/28 14:24:18;;;;;;;16.58;7.65;;;11.00;65.50;;;;;;5048346;28;20020;-68
2022/02/28 14:26:46;;;;;;;12.07;5.65;;;11.00;64.00;;;;;;5048413;28;20098;-67
2022/02/28 14:29:14;;;;;;;12.70;5.65;;;11.00;64.30;;;;;;5048625;28;20033;-67
2022/02/28 14:31:49;;;;;;;12.68;5.88;;;11.00;63.10;;;;;;5063413;28;20064;-67
2022/02/28 14:34:16;;;;;;;11.27;6.55;;;11.00;62.30;;;;;;5044751;28;20079;-68
2022/02/28 14:36:43;;;;;;;13.90;7.57;;;10.90;64.00;;;;;;5048383;28;20021;-67
2022/02/28 14:39:13;;;;;;;13.48;6.20;;;10.90;64.50;;;;;;5048199;28;20039;-67
2022/02/28 14:41:39;;;;;;;15.37;5.50;;;10.90;65.00;;;;;;5048710;28;20042;-67
2022/02/28 14:44:05;;;;;;;16.27;6.68;;;10.90;64.20;;;;;;5048123;28;20490;-67
2022/02/28 14:46:32;;;;;;;14.00;6.00;;;10.80;65.80;;;;;;5059376;28;20432;-67
2022/02/28 14:48:58;;;;;;;23.55;6.20;;;10.80;67.10;;;;;;5046999;28;20041;-67
2022/02/28 14:51:25;;;;;;;9.00;4.45;;;10.80;67.40;;;;;;5047422;28;20017;-67
2022/02/28 14:53:51;;;;;;;11.15;5.85;;;10.70;68.30;;;;;;5048020;28;20029;-67
2022/02/28 14:56:16;;;;;;;10.55;4.97;;;10.70;68.60;;;;;;5047935;28;20096;-66
2022/02/28 14:58:42;;;;;;;14.82;5.63;;;10.60;67.90;;;;;;5048502;28;20127;-67
2022/02/28 15:01:08;;;;;;;12.88;6.50;;;10.60;68.20;;;;;;5051821;28;20029;-67
2022/02/28 15:03:33;;;;;;;14.70;6.85;;;10.60;68.50;;;;;;5052904;28;20021;-68
2022/02/28 15:05:59;;;;;;;15.00;6.10;;;10.60;68.10;;;;;;5050935;28;20025;-67
2022/02/28 15:08:25;;;;;;;12.82;5.38;;;10.60;69.10;;;;;;5051675;28;20437;-67
2022/02/28 15:10:52;;;;;;;12.48;5.43;;;10.50;69.10;;;;;;5051301;28;20020;-67
2022/02/28 15:13:19;;;;;;;13.30;4.90;;;10.50;69.10;;;;;;5051627;28;20485;-62
2022/02/28 15:15:44;;;;;;;11.90;5.32;;;10.50;68.30;;;;;;5051514;28;20025;-62
2022/02/28 15:18:10;;;;;;;13.75;5.72;;;10.30;63.20;;;;;;5051597;28;20044;-62
2022/02/28 15:20:36;;;;;;;18.17;6.97;;;10.10;57.80;;;;;;5050569;28;20028;-62
2022/02/28 15:23:02;;;;;;;14.70;5.80;;;10.00;58.90;;;;;;5050752;28;20248;-62
2022/02/28 15:25:28;;;;;;;13.40;5.63;;;9.80;57.30;;;;;;5050665;28;20033;-61
2022/02/28 15:27:54;;;;;;;11.32;6.25;;;9.80;58.00;;;;;;5050855;28;20032;-61
2022/02/28 15:30:20;;;;;;;15.30;4.72;;;9.70;56.30;;;;;;5050979;28;20025;-62
2022/02/28 15:32:46;;;;;;;9.40;4.40;;;9.70;57.30;;;;;;5050189;28;20032;-61
2022/02/28 15:35:12;;;;;;;14.50;5.88;;;9.60;54.80;;;;;;5052430;28;20029;-62
2022/02/28 15:37:39;;;;;;;14.77;5.95;;;9.60;54.20;;;;;;5051120;28;20048;-61
2022/02/28 15:40:06;;;;;;;9.55;4.90;;;9.40;54.60;;;;;;5051049;28;20048;-62
2022/02/28 15:42:32;;;;;;;14.68;5.72;;;9.30;54.80;;;;;;5050493;28;20064;-61
2022/02/28 15:44:58;;;;;;;9.60;5.10;;;9.40;53.40;;;;;;5050479;28;20017;-61
2022/02/28 15:47:23;;;;;;;10.70;5.70;;;9.30;53.00;;;;;;5049432;28;20032;-61
2022/02/28 15:49:49;;;;;;;10.70;4.95;;;9.10;52.70;;;;;;5050622;28;20044;-61
2022/02/28 15:52:15;;;;;;;7.65;4.70;;;9.10;52.00;;;;;;5050454;28;20024;-61
2022/02/28 15:54:40;;;;;;;12.50;4.97;;;9.10;51.40;;;;;;5050428;28;20033;-61
2022/02/28 15:57:06;;;;;;;12.60;5.40;;;9.00;50.70;;;;;;5065961;28;20032;-61
2022/02/28 15:59:36;;;;;;;14.68;6.45;;;8.90;49.80;;;;;;5050914;28;20025;-61
2022/02/28 16:02:02;;;;;;;11.38;5.30;;;8.90;51.60;;;;;;5049480;28;20124;-61
2022/02/28 16:04:28;;;;;;;10.93;5.20;;;8.90;50.70;;;;;;5051873;28;20044;-64
2022/02/28 16:06:54;;;;;;;6.93;4.28;;;8.80;50.80;;;;;;5050505;28;20471;-61
2022/02/28 16:09:20;;;;;;;12.30;5.40;;;8.80;50.80;;;;;;5050716;28;20465;-61
2022/02/28 16:11:45;;;;;;;10.95;4.72;;;8.80;50.80;;;;;;5048826;28;20108;-61
2022/02/28 16:14:12;;;;;;;9.52;4.03;;;8.80;50.90;;;;;;5050541;28;20021;-61
2022/02/28 16:16:37;;;;;;;12.80;6.13;;;8.80;50.20;;;;;;5049971;28;20032;-60
2022/02/28 16:19:04;;;;;;;7.43;3.85;;;8.70;50.50;;;;;;5049714;28;20036;-61
2022/02/28 16:21:29;;;;;;;15.63;4.70;;;8.40;48.20;;;;;;5048903;28;20220;-61
2022/02/28 16:23:55;;;;;;;11.38;4.40;;;8.60;53.00;;;;;;5050639;28;20104;-61
2022/02/28 16:26:21;;;;;;;11.25;4.03;;;8.90;54.70;;;;;;5050344;28;20017;-61
2022/02/28 16:28:46;;;;;;;6.50;2.95;;;9.10;55.10;;;;;;5050059;28;20139;-61
2022/02/28 16:31:12;;;;;;;8.98;3.75;;;9.30;55.10;;;;;;5049888;28;20482;-62
2022/02/28 16:33:38;;;;;;;7.40;3.95;;;9.40;55.70;;;;;;5050097;28;20029;-62
2022/02/28 16:36:04;;;;;;;8.80;3.60;;;9.40;55.60;;;;;;5050636;28;20035;-61
2022/02/28 16:38:30;;;;;;;20.50;3.50;;;9.50;56.10;;;;;;5049801;28;20100;-61
2022/02/28 16:40:56;;;;;;;7.03;3.65;;;9.50;57.00;;;;;;5065210;28;20504;-61
2022/02/28 16:43:21;;;;;;;9.73;3.63;;;9.50;57.30;;;;;;5049991;28;20066;-62
2022/02/28 16:45:47;;;;;;;10.07;4.57;;;9.50;57.60;;;;;;5049293;28;20060;-61
2022/02/28 16:48:13;;;;;;;7.85;3.55;;;9.50;57.70;;;;;;5049657;28;20041;-62
2022/02/28 16:50:39;;;;;;;7.00;3.67;;;9.50;58.30;;;;;;5049051;28;20032;-62
2022/02/28 16:53:05;;;;;;;8.38;4.40;;;9.60;58.50;;;;;;5048923;28;20025;-61
2022/02/28 16:55:32;;;;;;;7.18;3.58;;;9.50;58.80;;;;;;5049276;28;20016;-61
2022/02/28 16:57:58;;;;;;;8.23;3.53;;;9.60;59.20;;;;;;5049463;28;20112;-62
2022/02/28 17:00:24;;;;;;;8.00;3.53;;;9.50;59.50;;;;;;5049060;28;20104;-61
2022/02/28 17:02:50;;;;;;;11.90;4.03;;;9.60;59.80;;;;;;5047870;28;20036;-62
2022/02/28 17:05:16;;;;;;;6.32;3.22;;;9.60;60.00;;;;;;5049512;28;20024;-62
2022/02/28 17:07:46;;;;;;;6.90;3.38;;;9.60;60.20;;;;;;5048935;28;20017;-63
2022/02/28 17:10:14;;;;;;;7.95;3.83;;;9.60;60.70;;;;;;5049795;28;20123;-62
2022/02/28 17:12:39;;;;;;;10.55;3.90;;;9.60;61.00;;;;;;5048745;28;20104;-61
2022/02/28 17:15:05;;;;;;;7.78;3.72;;;9.60;61.20;;;;;;5049431;28;20112;-62
2022/02/28 17:17:31;;;;;;;6.90;3.65;;;9.60;61.60;;;;;;5045525;28;20517;-61
2022/02/28 17:19:59;;;;;;;10.80;3.75;;;9.60;62.00;;;;;;5048805;28;20134;-62
2022/02/28 17:22:24;;;;;;;12.05;3.75;;;9.60;62.60;;;;;;5051232;28;20192;-61
2022/02/28 17:24:50;;;;;;;7.65;3.88;;;9.60;62.60;;;;;;5050669;28;20386;-61
2022/02/28 17:27:15;;;;;;;11.10;3.78;;;9.60;63.00;;;;;;5048216;28;20076;-61
2022/02/28 17:29:41;;;;;;;8.35;3.85;;;9.60;63.10;;;;;;5047783;28;20501;-62
2022/02/28 17:32:07;;;;;;;9.85;3.45;;;9.60;63.40;;;;;;5047947;28;20166;-61
2022/02/28 17:34:34;;;;;;;9.27;4.03;;;9.60;63.70;;;;;;5048120;28;20021;-61
2022/02/28 17:36:59;;;;;;;7.50;3.72;;;9.60;63.90;;;;;;5048343;28;20067;-61
2022/02/28 17:39:26;;;;;;;10.48;3.20;;;9.60;64.20;;;;;;5048634;28;20029;-61
2022/02/28 17:41:51;;;;;;;12.32;3.80;;;9.60;64.40;;;;;;5048205;28;20029;-62
2022/02/28 17:44:17;;;;;;;9.32;3.58;;;9.60;64.60;;;;;;5049051;28;20024;-61
2022/02/28 17:46:44;;;;;;;9.52;4.07;;;9.60;64.70;;;;;;5047469;28;20036;-62
2022/02/28 17:49:13;;;;;;;9.07;4.40;;;9.60;65.30;;;;;;5048186;28;20050;-62
2022/02/28 17:51:40;;;;;;;9.13;3.73;;;9.60;65.30;;;;;;5048116;28;20120;-62
2022/02/28 17:54:06;;;;;;;13.68;5.00;;;9.60;65.40;;;;;;5048088;28;20033;-61
2022/02/28 17:56:32;;;;;;;9.85;4.00;;;9.60;65.70;;;;;;5047645;28;20423;-61